sensor_id;sensor_type;location;lat;lon;timestamp;temperature;humidity
64855;DHT22;51321;50.428;8.378;2023-11-19T00:02:00;8.60;99.90
64855;DHT22;51321;50.428;8.378;2023-11-19T00:04:41;8.60;99.90
64855;DHT22;51321;50.428;8.378;2023-11-19T00:07:23;8.60;99.90
64855;DHT22;51321;50.428;8.378;2023-11-19T00:10:03;8.60;99.90
64855;DHT22;51321;50.428;8.378;2023-11-19T00:12:46;8.70;99.90
64855;DHT22;51321;50.428;8.378;2023-11-19T00:15:26;8.70;99.90
64855;DHT22;51321;50.428;8.378;2023-11-19T00:18:07;8.70;99.90
64855;DHT22;51321;50.428;8.378;2023-11-19T00:20:48;8.70;99.90
64855;DHT22;51321;50.428;8.378;2023-11-19T00:23:30;8.70;99.90
64855;DHT22;51321;50.428;8.378;2023-11-19T00:26:11;8.70;99.90
64855;DHT22;51321;50.428;8.378;2023-11-19T00:28:55;8.70;99.90
64855;DHT22;51321;50.428;8.378;2023-11-19T00:31:37;8.70;99.90
64855;DHT22;51321;50.428;8.378;2023-11-19T00:34:18;8.70;99.90
64855;DHT22;51321;50.428;8.378;2023-11-19T00:37:01;8.80;99.90
64855;DHT22;51321;50.428;8.378;2023-11-19T00:39:44;8.80;99.90
64855;DHT22;51321;50.428;8.378;2023-11-19T00:42:25;8.90;99.90
64855;DHT22;51321;50.428;8.378;2023-11-19T00:45:06;8.90;99.90
64855;DHT22;51321;50.428;8.378;2023-11-19T00:47:48;8.90;99.90
64855;DHT22;51321;50.428;8.378;2023-11-19T00:50:30;8.90;99.90
64855;DHT22;51321;50.428;8.378;2023-11-19T00:53:10;8.90;99.90
64855;DHT22;51321;50.428;8.378;2023-11-19T00:55:53;8.90;99.90
64855;DHT22;51321;50.428;8.378;2023-11-19T00:58:34;8.90;99.90
64855;DHT22;51321;50.428;8.378;2023-11-19T01:01:15;9.00;99.90
64855;DHT22;51321;50.428;8.378;2023-11-19T01:03:55;9.00;99.90
64855;DHT22;51321;50.428;8.378;2023-11-19T01:06:36;9.10;99.90
64855;DHT22;51321;50.428;8.378;2023-11-19T01:09:17;9.00;99.90
64855;DHT22;51321;50.428;8.378;2023-11-19T01:11:59;9.00;99.90
64855;DHT22;51321;50.428;8.378;2023-11-19T01:14:40;9.00;99.90
64855;DHT22;51321;50.428;8.378;2023-11-19T01:17:20;9.00;99.90
64855;DHT22;51321;50.428;8.378;2023-11-19T01:20:02;9.00;99.90
64855;DHT22;51321;50.428;8.378;2023-11-19T01:22:46;9.00;99.90
64855;DHT22;51321;50.428;8.378;2023-11-19T01:25:27;9.10;99.90
64855;DHT22;51321;50.428;8.378;2023-11-19T01:28:09;9.20;99.90
64855;DHT22;51321;50.428;8.378;2023-11-19T01:30:50;9.30;99.90
64855;DHT22;51321;50.428;8.378;2023-11-19T01:33:31;9.30;99.90
64855;DHT22;51321;50.428;8.378;2023-11-19T01:36:13;9.40;99.90
64855;DHT22;51321;50.428;8.378;2023-11-19T01:38:53;9.40;99.90
64855;DHT22;51321;50.428;8.378;2023-11-19T01:41:34;9.40;99.90
64855;DHT22;51321;50.428;8.378;2023-11-19T01:44:17;9.40;99.90
64855;DHT22;51321;50.428;8.378;2023-11-19T01:46:58;9.50;99.90
64855;DHT22;51321;50.428;8.378;2023-11-19T01:49:40;9.50;99.90
64855;DHT22;51321;50.428;8.378;2023-11-19T01:52:20;9.40;99.90
64855;DHT22;51321;50.428;8.378;2023-11-19T01:55:00;9.40;99.90
64855;DHT22;51321;50.428;8.378;2023-11-19T01:57:42;9.40;99.90
64855;DHT22;51321;50.428;8.378;2023-11-19T02:00:26;9.40;99.90
64855;DHT22;51321;50.428;8.378;2023-11-19T02:03:06;9.50;99.90
64855;DHT22;51321;50.428;8.378;2023-11-19T02:05:48;9.50;99.90
64855;DHT22;51321;50.428;8.378;2023-11-19T02:08:32;9.60;99.90
64855;DHT22;51321;50.428;8.378;2023-11-19T02:11:12;9.70;99.90
64855;DHT22;51321;50.428;8.378;2023-11-19T02:13:53;9.80;99.90
64855;DHT22;51321;50.428;8.378;2023-11-19T02:16:35;9.80;99.90
64855;DHT22;51321;50.428;8.378;2023-11-19T02:19:16;9.90;99.90
64855;DHT22;51321;50.428;8.378;2023-11-19T02:21:59;9.90;99.90
64855;DHT22;51321;50.428;8.378;2023-11-19T02:24:41;9.90;99.90
64855;DHT22;51321;50.428;8.378;2023-11-19T02:27:23;9.90;99.90
64855;DHT22;51321;50.428;8.378;2023-11-19T02:30:09;9.90;99.90
64855;DHT22;51321;50.428;8.378;2023-11-19T02:32:50;10.00;99.90
64855;DHT22;51321;50.428;8.378;2023-11-19T02:35:31;10.00;99.90
64855;DHT22;51321;50.428;8.378;2023-11-19T02:38:12;9.90;99.90
64855;DHT22;51321;50.428;8.378;2023-11-19T02:40:53;10.00;99.90
64855;DHT22;51321;50.428;8.378;2023-11-19T02:43:34;10.00;99.90
64855;DHT22;51321;50.428;8.378;2023-11-19T02:46:18;10.00;99.90
64855;DHT22;51321;50.428;8.378;2023-11-19T02:49:00;10.00;99.90
64855;DHT22;51321;50.428;8.378;2023-11-19T02:51:42;9.90;99.90
64855;DHT22;51321;50.428;8.378;2023-11-19T02:54:23;9.90;99.90
64855;DHT22;51321;50.428;8.378;2023-11-19T02:57:06;9.90;99.90
64855;DHT22;51321;50.428;8.378;2023-11-19T02:59:47;9.90;99.90
64855;DHT22;51321;50.428;8.378;2023-11-19T03:02:30;9.90;99.90
64855;DHT22;51321;50.428;8.378;2023-11-19T03:05:13;9.90;99.90
64855;DHT22;51321;50.428;8.378;2023-11-19T03:07:54;9.90;99.90
64855;DHT22;51321;50.428;8.378;2023-11-19T03:10:34;9.90;99.90
64855;DHT22;51321;50.428;8.378;2023-11-19T03:13:16;9.90;99.90
64855;DHT22;51321;50.428;8.378;2023-11-19T03:15:57;9.90;99.90
64855;DHT22;51321;50.428;8.378;2023-11-19T03:18:39;9.90;99.90
64855;DHT22;51321;50.428;8.378;2023-11-19T03:21:19;9.90;99.90
64855;DHT22;51321;50.428;8.378;2023-11-19T03:24:07;10.00;99.90
64855;DHT22;51321;50.428;8.378;2023-11-19T03:26:48;10.00;99.90
64855;DHT22;51321;50.428;8.378;2023-11-19T03:29:29;10.10;99.90
64855;DHT22;51321;50.428;8.378;2023-11-19T03:32:10;10.10;99.90
64855;DHT22;51321;50.428;8.378;2023-11-19T03:34:52;10.10;99.90
64855;DHT22;51321;50.428;8.378;2023-11-19T03:37:34;10.10;99.90
64855;DHT22;51321;50.428;8.378;2023-11-19T03:40:16;10.10;99.90
64855;DHT22;51321;50.428;8.378;2023-11-19T03:42:57;10.10;99.90
64855;DHT22;51321;50.428;8.378;2023-11-19T03:45:38;10.10;99.90
64855;DHT22;51321;50.428;8.378;2023-11-19T03:48:21;10.20;99.90
64855;DHT22;51321;50.428;8.378;2023-11-19T03:51:03;10.20;99.90
64855;DHT22;51321;50.428;8.378;2023-11-19T03:53:44;10.20;99.90
64855;DHT22;51321;50.428;8.378;2023-11-19T03:56:25;10.20;99.90
64855;DHT22;51321;50.428;8.378;2023-11-19T03:59:06;10.20;99.90
64855;DHT22;51321;50.428;8.378;2023-11-19T04:01:47;10.20;99.90
64855;DHT22;51321;50.428;8.378;2023-11-19T04:04:28;10.10;99.90
64855;DHT22;51321;50.428;8.378;2023-11-19T04:07:10;10.10;99.90
64855;DHT22;51321;50.428;8.378;2023-11-19T04:09:51;10.10;99.90
64855;DHT22;51321;50.428;8.378;2023-11-19T04:12:31;10.00;99.90
64855;DHT22;51321;50.428;8.378;2023-11-19T04:15:13;10.00;99.90
64855;DHT22;51321;50.428;8.378;2023-11-19T04:17:54;10.00;99.90
64855;DHT22;51321;50.428;8.378;2023-11-19T04:20:35;10.00;99.90
64855;DHT22;51321;50.428;8.378;2023-11-19T04:23:17;10.10;99.90
64855;DHT22;51321;50.428;8.378;2023-11-19T04:25:57;10.10;99.90
64855;DHT22;51321;50.428;8.378;2023-11-19T04:28:40;10.20;99.90
64855;DHT22;51321;50.428;8.378;2023-11-19T04:31:20;10.20;99.90
64855;DHT22;51321;50.428;8.378;2023-11-19T04:34:00;10.20;99.90
64855;DHT22;51321;50.428;8.378;2023-11-19T04:36:41;10.30;99.90
64855;DHT22;51321;50.428;8.378;2023-11-19T04:39:24;10.30;99.90
64855;DHT22;51321;50.428;8.378;2023-11-19T04:42:06;10.30;99.90
64855;DHT22;51321;50.428;8.378;2023-11-19T04:44:46;10.30;99.90
64855;DHT22;51321;50.428;8.378;2023-11-19T04:47:29;10.40;99.90
64855;DHT22;51321;50.428;8.378;2023-11-19T04:50:10;10.40;99.90
64855;DHT22;51321;50.428;8.378;2023-11-19T04:52:50;10.40;99.90
64855;DHT22;51321;50.428;8.378;2023-11-19T04:55:33;10.40;99.90
64855;DHT22;51321;50.428;8.378;2023-11-19T04:58:13;10.50;99.90
64855;DHT22;51321;50.428;8.378;2023-11-19T05:00:54;10.50;99.90
64855;DHT22;51321;50.428;8.378;2023-11-19T05:03:35;10.60;99.90
64855;DHT22;51321;50.428;8.378;2023-11-19T05:06:16;10.60;99.90
64855;DHT22;51321;50.428;8.378;2023-11-19T05:08:58;10.60;99.90
64855;DHT22;51321;50.428;8.378;2023-11-19T05:11:41;10.60;99.90
64855;DHT22;51321;50.428;8.378;2023-11-19T05:14:22;10.60;99.90
64855;DHT22;51321;50.428;8.378;2023-11-19T05:17:04;10.60;99.90
64855;DHT22;51321;50.428;8.378;2023-11-19T05:19:44;10.50;99.90
64855;DHT22;51321;50.428;8.378;2023-11-19T05:22:25;10.30;99.90
64855;DHT22;51321;50.428;8.378;2023-11-19T05:25:06;10.20;99.90
64855;DHT22;51321;50.428;8.378;2023-11-19T05:27:49;10.20;99.90
64855;DHT22;51321;50.428;8.378;2023-11-19T05:30:30;10.20;99.90
64855;DHT22;51321;50.428;8.378;2023-11-19T05:33:11;10.20;99.90
64855;DHT22;51321;50.428;8.378;2023-11-19T05:35:52;10.30;99.90
64855;DHT22;51321;50.428;8.378;2023-11-19T05:38:34;10.30;99.90
64855;DHT22;51321;50.428;8.378;2023-11-19T05:41:14;10.30;99.90
64855;DHT22;51321;50.428;8.378;2023-11-19T05:43:56;10.30;99.90
64855;DHT22;51321;50.428;8.378;2023-11-19T05:46:37;10.20;99.90
64855;DHT22;51321;50.428;8.378;2023-11-19T05:49:21;10.20;99.90
64855;DHT22;51321;50.428;8.378;2023-11-19T05:52:01;10.20;99.90
64855;DHT22;51321;50.428;8.378;2023-11-19T05:54:46;10.10;99.90
64855;DHT22;51321;50.428;8.378;2023-11-19T05:57:30;10.00;99.90
64855;DHT22;51321;50.428;8.378;2023-11-19T06:00:15;10.10;99.90
64855;DHT22;51321;50.428;8.378;2023-11-19T06:02:57;10.00;99.90
64855;DHT22;51321;50.428;8.378;2023-11-19T06:05:37;10.00;99.90
64855;DHT22;51321;50.428;8.378;2023-11-19T06:08:19;10.00;99.90
64855;DHT22;51321;50.428;8.378;2023-11-19T06:11:00;10.00;99.90
64855;DHT22;51321;50.428;8.378;2023-11-19T06:13:41;10.10;99.90
64855;DHT22;51321;50.428;8.378;2023-11-19T06:16:23;10.20;99.90
64855;DHT22;51321;50.428;8.378;2023-11-19T06:19:04;10.20;99.90
64855;DHT22;51321;50.428;8.378;2023-11-19T06:21:45;10.20;99.90
64855;DHT22;51321;50.428;8.378;2023-11-19T06:24:25;10.10;99.90
64855;DHT22;51321;50.428;8.378;2023-11-19T06:27:06;10.20;99.90
64855;DHT22;51321;50.428;8.378;2023-11-19T06:29:46;10.20;99.90
64855;DHT22;51321;50.428;8.378;2023-11-19T06:32:30;10.20;99.90
64855;DHT22;51321;50.428;8.378;2023-11-19T06:35:11;10.30;99.90
64855;DHT22;51321;50.428;8.378;2023-11-19T06:37:52;10.20;99.90
64855;DHT22;51321;50.428;8.378;2023-11-19T06:40:34;10.30;99.90
64855;DHT22;51321;50.428;8.378;2023-11-19T06:43:15;10.30;99.90
64855;DHT22;51321;50.428;8.378;2023-11-19T06:45:55;10.40;99.90
64855;DHT22;51321;50.428;8.378;2023-11-19T06:48:39;10.30;99.90
64855;DHT22;51321;50.428;8.378;2023-11-19T06:51:21;10.40;99.90
64855;DHT22;51321;50.428;8.378;2023-11-19T06:54:03;10.50;99.90
64855;DHT22;51321;50.428;8.378;2023-11-19T06:56:44;10.60;99.90
64855;DHT22;51321;50.428;8.378;2023-11-19T06:59:27;10.60;99.90
64855;DHT22;51321;50.428;8.378;2023-11-19T07:02:08;10.50;99.90
64855;DHT22;51321;50.428;8.378;2023-11-19T07:04:50;10.60;99.90
64855;DHT22;51321;50.428;8.378;2023-11-19T07:07:31;10.50;99.90
64855;DHT22;51321;50.428;8.378;2023-11-19T07:10:12;10.50;99.90
64855;DHT22;51321;50.428;8.378;2023-11-19T07:12:52;10.50;99.90
64855;DHT22;51321;50.428;8.378;2023-11-19T07:15:34;10.50;99.90
64855;DHT22;51321;50.428;8.378;2023-11-19T07:18:15;10.50;99.90
64855;DHT22;51321;50.428;8.378;2023-11-19T07:20:56;10.50;99.90
64855;DHT22;51321;50.428;8.378;2023-11-19T07:23:39;10.50;99.90
64855;DHT22;51321;50.428;8.378;2023-11-19T07:26:21;10.50;99.90
64855;DHT22;51321;50.428;8.378;2023-11-19T07:29:01;10.40;99.90
64855;DHT22;51321;50.428;8.378;2023-11-19T07:31:43;10.30;99.90
64855;DHT22;51321;50.428;8.378;2023-11-19T07:34:23;10.30;99.90
64855;DHT22;51321;50.428;8.378;2023-11-19T07:37:06;10.40;99.90
64855;DHT22;51321;50.428;8.378;2023-11-19T07:39:46;10.30;99.90
64855;DHT22;51321;50.428;8.378;2023-11-19T07:42:27;10.40;99.90
64855;DHT22;51321;50.428;8.378;2023-11-19T07:45:09;10.40;99.90
64855;DHT22;51321;50.428;8.378;2023-11-19T07:47:49;10.50;99.90
64855;DHT22;51321;50.428;8.378;2023-11-19T07:50:32;10.60;99.90
64855;DHT22;51321;50.428;8.378;2023-11-19T07:53:14;10.70;99.90
64855;DHT22;51321;50.428;8.378;2023-11-19T07:55:54;10.70;99.90
64855;DHT22;51321;50.428;8.378;2023-11-19T07:58:35;10.70;99.90
64855;DHT22;51321;50.428;8.378;2023-11-19T08:01:16;10.70;99.90
64855;DHT22;51321;50.428;8.378;2023-11-19T08:03:57;10.70;99.90
64855;DHT22;51321;50.428;8.378;2023-11-19T08:06:38;10.60;99.90
64855;DHT22;51321;50.428;8.378;2023-11-19T08:09:20;10.50;99.90
64855;DHT22;51321;50.428;8.378;2023-11-19T08:12:01;10.60;99.90
64855;DHT22;51321;50.428;8.378;2023-11-19T08:14:43;10.70;99.90
64855;DHT22;51321;50.428;8.378;2023-11-19T08:17:23;10.60;99.90
64855;DHT22;51321;50.428;8.378;2023-11-19T08:20:04;10.60;99.90
64855;DHT22;51321;50.428;8.378;2023-11-19T08:22:49;10.50;99.90
64855;DHT22;51321;50.428;8.378;2023-11-19T08:25:32;10.40;99.90
64855;DHT22;51321;50.428;8.378;2023-11-19T08:28:14;10.40;99.90
64855;DHT22;51321;50.428;8.378;2023-11-19T08:30:54;10.50;99.90
64855;DHT22;51321;50.428;8.378;2023-11-19T08:33:35;10.60;99.90
64855;DHT22;51321;50.428;8.378;2023-11-19T08:36:17;10.80;99.90
64855;DHT22;51321;50.428;8.378;2023-11-19T08:38:58;11.00;99.90
64855;DHT22;51321;50.428;8.378;2023-11-19T08:41:40;11.20;99.90
64855;DHT22;51321;50.428;8.378;2023-11-19T08:44:22;11.40;99.90
64855;DHT22;51321;50.428;8.378;2023-11-19T08:47:04;11.60;99.90
64855;DHT22;51321;50.428;8.378;2023-11-19T08:49:46;11.90;99.90
64855;DHT22;51321;50.428;8.378;2023-11-19T08:52:26;12.00;99.90
64855;DHT22;51321;50.428;8.378;2023-11-19T08:55:07;12.20;99.90
64855;DHT22;51321;50.428;8.378;2023-11-19T08:57:50;12.40;99.90
64855;DHT22;51321;50.428;8.378;2023-11-19T09:00:31;12.50;99.90
64855;DHT22;51321;50.428;8.378;2023-11-19T09:03:12;12.60;99.90
64855;DHT22;51321;50.428;8.378;2023-11-19T09:05:55;12.80;99.90
64855;DHT22;51321;50.428;8.378;2023-11-19T09:08:36;12.90;99.90
64855;DHT22;51321;50.428;8.378;2023-11-19T09:11:16;13.00;99.90
64855;DHT22;51321;50.428;8.378;2023-11-19T09:13:58;13.00;99.90
64855;DHT22;51321;50.428;8.378;2023-11-19T09:16:39;13.00;99.90
64855;DHT22;51321;50.428;8.378;2023-11-19T09:19:19;13.10;99.90
64855;DHT22;51321;50.428;8.378;2023-11-19T09:22:00;13.10;99.90
64855;DHT22;51321;50.428;8.378;2023-11-19T09:24:40;13.20;99.90
64855;DHT22;51321;50.428;8.378;2023-11-19T09:27:23;13.30;99.90
64855;DHT22;51321;50.428;8.378;2023-11-19T09:30:09;13.30;99.90
64855;DHT22;51321;50.428;8.378;2023-11-19T09:32:50;13.40;99.90
64855;DHT22;51321;50.428;8.378;2023-11-19T09:35:31;13.50;99.90
64855;DHT22;51321;50.428;8.378;2023-11-19T09:38:14;13.60;99.90
64855;DHT22;51321;50.428;8.378;2023-11-19T09:40:55;13.60;99.90
64855;DHT22;51321;50.428;8.378;2023-11-19T09:43:37;13.60;99.90
64855;DHT22;51321;50.428;8.378;2023-11-19T09:46:20;13.70;99.90
64855;DHT22;51321;50.428;8.378;2023-11-19T09:49:03;13.90;99.90
64855;DHT22;51321;50.428;8.378;2023-11-19T09:51:46;13.90;99.90
64855;DHT22;51321;50.428;8.378;2023-11-19T09:54:27;13.90;99.90
64855;DHT22;51321;50.428;8.378;2023-11-19T09:57:08;13.90;99.90
64855;DHT22;51321;50.428;8.378;2023-11-19T09:59:50;14.10;99.90
64855;DHT22;51321;50.428;8.378;2023-11-19T10:02:33;14.10;99.90
64855;DHT22;51321;50.428;8.378;2023-11-19T10:05:15;14.20;99.90
64855;DHT22;51321;50.428;8.378;2023-11-19T10:07:56;14.20;99.90
64855;DHT22;51321;50.428;8.378;2023-11-19T10:10:36;14.20;99.90
64855;DHT22;51321;50.428;8.378;2023-11-19T10:13:17;14.20;99.90
64855;DHT22;51321;50.428;8.378;2023-11-19T10:15:57;14.30;99.90
64855;DHT22;51321;50.428;8.378;2023-11-19T10:18:44;14.30;99.90
64855;DHT22;51321;50.428;8.378;2023-11-19T10:21:25;14.30;99.90
64855;DHT22;51321;50.428;8.378;2023-11-19T10:24:06;14.40;99.90
64855;DHT22;51321;50.428;8.378;2023-11-19T10:26:48;14.50;99.90
64855;DHT22;51321;50.428;8.378;2023-11-19T10:29:29;14.50;99.90
64855;DHT22;51321;50.428;8.378;2023-11-19T10:32:10;14.60;99.90
64855;DHT22;51321;50.428;8.378;2023-11-19T10:34:53;14.60;99.90
64855;DHT22;51321;50.428;8.378;2023-11-19T10:37:45;14.60;99.90
64855;DHT22;51321;50.428;8.378;2023-11-19T10:40:37;14.80;99.90
64855;DHT22;51321;50.428;8.378;2023-11-19T10:43:17;14.80;99.90
64855;DHT22;51321;50.428;8.378;2023-11-19T10:46:09;14.80;99.90
64855;DHT22;51321;50.428;8.378;2023-11-19T10:48:51;14.80;99.90
64855;DHT22;51321;50.428;8.378;2023-11-19T10:51:34;15.00;99.90
64855;DHT22;51321;50.428;8.378;2023-11-19T10:54:15;15.10;99.90
64855;DHT22;51321;50.428;8.378;2023-11-19T10:57:01;15.20;99.90
64855;DHT22;51321;50.428;8.378;2023-11-19T10:59:42;15.20;99.90
64855;DHT22;51321;50.428;8.378;2023-11-19T11:02:24;15.20;99.90
64855;DHT22;51321;50.428;8.378;2023-11-19T11:05:05;15.10;99.90
64855;DHT22;51321;50.428;8.378;2023-11-19T11:07:47;15.10;99.90
64855;DHT22;51321;50.428;8.378;2023-11-19T11:10:29;15.00;99.90
64855;DHT22;51321;50.428;8.378;2023-11-19T11:13:15;15.00;99.90
64855;DHT22;51321;50.428;8.378;2023-11-19T11:15:56;15.10;99.90
64855;DHT22;51321;50.428;8.378;2023-11-19T11:18:37;15.10;99.90
64855;DHT22;51321;50.428;8.378;2023-11-19T11:21:20;15.10;99.90
64855;DHT22;51321;50.428;8.378;2023-11-19T11:24:20;15.10;99.90
64855;DHT22;51321;50.428;8.378;2023-11-19T11:27:14;15.00;99.90
64855;DHT22;51321;50.428;8.378;2023-11-19T11:30:17;15.10;99.90
64855;DHT22;51321;50.428;8.378;2023-11-19T11:33:00;15.10;99.90
64855;DHT22;51321;50.428;8.378;2023-11-19T11:35:49;15.10;99.90
64855;DHT22;51321;50.428;8.378;2023-11-19T11:38:31;15.00;99.90
64855;DHT22;51321;50.428;8.378;2023-11-19T11:41:17;14.90;99.90
64855;DHT22;51321;50.428;8.378;2023-11-19T11:44:01;14.80;99.90
64855;DHT22;51321;50.428;8.378;2023-11-19T11:46:54;14.70;99.90
64855;DHT22;51321;50.428;8.378;2023-11-19T11:49:35;14.70;99.90
64855;DHT22;51321;50.428;8.378;2023-11-19T11:52:16;14.80;99.90
64855;DHT22;51321;50.428;8.378;2023-11-19T11:54:59;14.90;99.90
64855;DHT22;51321;50.428;8.378;2023-11-19T11:57:44;14.80;99.90
64855;DHT22;51321;50.428;8.378;2023-11-19T12:00:26;15.00;99.90
64855;DHT22;51321;50.428;8.378;2023-11-19T12:03:07;15.00;99.90
64855;DHT22;51321;50.428;8.378;2023-11-19T12:05:51;15.00;99.90
64855;DHT22;51321;50.428;8.378;2023-11-19T12:08:32;15.00;99.90
64855;DHT22;51321;50.428;8.378;2023-11-19T12:11:16;14.90;99.90
64855;DHT22;51321;50.428;8.378;2023-11-19T12:14:00;14.80;99.90
64855;DHT22;51321;50.428;8.378;2023-11-19T12:16:41;14.80;99.90
64855;DHT22;51321;50.428;8.378;2023-11-19T12:19:22;14.60;99.90
64855;DHT22;51321;50.428;8.378;2023-11-19T12:22:07;14.50;99.90
64855;DHT22;51321;50.428;8.378;2023-11-19T12:24:51;14.40;99.90
64855;DHT22;51321;50.428;8.378;2023-11-19T12:27:32;14.40;99.90
64855;DHT22;51321;50.428;8.378;2023-11-19T12:30:18;14.50;99.90
64855;DHT22;51321;50.428;8.378;2023-11-19T12:33:07;14.60;99.90
64855;DHT22;51321;50.428;8.378;2023-11-19T12:35:48;14.60;99.90
64855;DHT22;51321;50.428;8.378;2023-11-19T12:38:29;14.50;99.90
64855;DHT22;51321;50.428;8.378;2023-11-19T12:41:12;14.30;99.90
64855;DHT22;51321;50.428;8.378;2023-11-19T12:44:08;14.10;99.90
64855;DHT22;51321;50.428;8.378;2023-11-19T12:47:00;14.10;99.90
64855;DHT22;51321;50.428;8.378;2023-11-19T12:49:42;13.90;99.90
64855;DHT22;51321;50.428;8.378;2023-11-19T12:52:23;13.80;99.90
64855;DHT22;51321;50.428;8.378;2023-11-19T12:55:04;13.70;99.90
64855;DHT22;51321;50.428;8.378;2023-11-19T12:57:45;13.70;99.90
64855;DHT22;51321;50.428;8.378;2023-11-19T13:00:28;13.60;99.90
64855;DHT22;51321;50.428;8.378;2023-11-19T13:03:10;13.50;99.90
64855;DHT22;51321;50.428;8.378;2023-11-19T13:05:51;13.50;99.90
64855;DHT22;51321;50.428;8.378;2023-11-19T13:08:41;13.60;99.90
64855;DHT22;51321;50.428;8.378;2023-11-19T13:11:32;13.50;99.90
64855;DHT22;51321;50.428;8.378;2023-11-19T13:14:13;13.50;99.90
64855;DHT22;51321;50.428;8.378;2023-11-19T13:16:54;13.40;99.90
64855;DHT22;51321;50.428;8.378;2023-11-19T13:19:35;13.40;99.90
64855;DHT22;51321;50.428;8.378;2023-11-19T13:22:16;13.40;99.90
64855;DHT22;51321;50.428;8.378;2023-11-19T13:24:56;13.40;99.90
64855;DHT22;51321;50.428;8.378;2023-11-19T13:27:37;13.40;99.90
64855;DHT22;51321;50.428;8.378;2023-11-19T13:30:18;13.50;99.90
64855;DHT22;51321;50.428;8.378;2023-11-19T13:33:00;13.40;99.90
64855;DHT22;51321;50.428;8.378;2023-11-19T13:35:43;13.40;99.90
64855;DHT22;51321;50.428;8.378;2023-11-19T13:38:24;13.40;99.90
64855;DHT22;51321;50.428;8.378;2023-11-19T13:41:05;13.30;99.90
64855;DHT22;51321;50.428;8.378;2023-11-19T13:43:46;13.20;99.90
64855;DHT22;51321;50.428;8.378;2023-11-19T13:46:27;13.10;99.90
64855;DHT22;51321;50.428;8.378;2023-11-19T13:49:07;13.00;99.90
64855;DHT22;51321;50.428;8.378;2023-11-19T13:51:49;12.90;99.90
64855;DHT22;51321;50.428;8.378;2023-11-19T13:54:29;12.80;99.90
64855;DHT22;51321;50.428;8.378;2023-11-19T13:57:10;12.70;99.90
64855;DHT22;51321;50.428;8.378;2023-11-19T13:59:51;12.80;99.90
64855;DHT22;51321;50.428;8.378;2023-11-19T14:02:32;13.00;99.90
64855;DHT22;51321;50.428;8.378;2023-11-19T14:05:14;13.00;99.90
64855;DHT22;51321;50.428;8.378;2023-11-19T14:07:58;13.10;99.90
64855;DHT22;51321;50.428;8.378;2023-11-19T14:10:41;13.20;99.90
64855;DHT22;51321;50.428;8.378;2023-11-19T14:13:22;13.20;99.90
64855;DHT22;51321;50.428;8.378;2023-11-19T14:16:03;13.40;99.90
64855;DHT22;51321;50.428;8.378;2023-11-19T14:18:45;13.40;99.90
64855;DHT22;51321;50.428;8.378;2023-11-19T14:21:27;13.40;99.90
64855;DHT22;51321;50.428;8.378;2023-11-19T14:24:10;13.50;99.90
64855;DHT22;51321;50.428;8.378;2023-11-19T14:26:50;13.50;99.90
64855;DHT22;51321;50.428;8.378;2023-11-19T14:29:31;13.40;99.90
64855;DHT22;51321;50.428;8.378;2023-11-19T14:32:11;13.30;99.90
64855;DHT22;51321;50.428;8.378;2023-11-19T14:34:52;13.20;99.90
64855;DHT22;51321;50.428;8.378;2023-11-19T14:37:32;13.20;99.90
64855;DHT22;51321;50.428;8.378;2023-11-19T14:40:15;13.10;99.90
64855;DHT22;51321;50.428;8.378;2023-11-19T14:42:55;13.10;99.90
64855;DHT22;51321;50.428;8.378;2023-11-19T14:45:36;13.00;99.90
64855;DHT22;51321;50.428;8.378;2023-11-19T14:48:17;13.00;99.90
64855;DHT22;51321;50.428;8.378;2023-11-19T14:50:57;13.00;99.90
64855;DHT22;51321;50.428;8.378;2023-11-19T14:53:38;13.10;99.90
64855;DHT22;51321;50.428;8.378;2023-11-19T14:56:21;13.20;99.90
64855;DHT22;51321;50.428;8.378;2023-11-19T14:59:02;13.20;99.90
64855;DHT22;51321;50.428;8.378;2023-11-19T15:01:44;13.10;99.90
64855;DHT22;51321;50.428;8.378;2023-11-19T15:04:25;13.00;99.90
64855;DHT22;51321;50.428;8.378;2023-11-19T15:07:06;12.90;99.90
64855;DHT22;51321;50.428;8.378;2023-11-19T15:09:46;12.80;99.90
64855;DHT22;51321;50.428;8.378;2023-11-19T15:12:28;12.70;99.90
64855;DHT22;51321;50.428;8.378;2023-11-19T15:15:10;12.70;99.90
64855;DHT22;51321;50.428;8.378;2023-11-19T15:17:52;12.70;99.90
64855;DHT22;51321;50.428;8.378;2023-11-19T15:20:34;12.70;99.90
64855;DHT22;51321;50.428;8.378;2023-11-19T15:23:17;12.70;99.90
64855;DHT22;51321;50.428;8.378;2023-11-19T15:26:02;12.60;99.90
64855;DHT22;51321;50.428;8.378;2023-11-19T15:28:44;12.50;99.90
64855;DHT22;51321;50.428;8.378;2023-11-19T15:31:25;12.40;99.90
64855;DHT22;51321;50.428;8.378;2023-11-19T15:34:07;12.30;99.90
64855;DHT22;51321;50.428;8.378;2023-11-19T15:36:48;12.20;99.90
64855;DHT22;51321;50.428;8.378;2023-11-19T15:39:28;12.20;99.90
64855;DHT22;51321;50.428;8.378;2023-11-19T15:42:09;12.10;99.90
64855;DHT22;51321;50.428;8.378;2023-11-19T15:44:52;12.10;99.90
64855;DHT22;51321;50.428;8.378;2023-11-19T15:47:33;12.10;99.90
64855;DHT22;51321;50.428;8.378;2023-11-19T15:50:17;12.10;99.90
64855;DHT22;51321;50.428;8.378;2023-11-19T15:52:58;12.00;99.90
64855;DHT22;51321;50.428;8.378;2023-11-19T15:55:41;12.00;99.90
64855;DHT22;51321;50.428;8.378;2023-11-19T15:58:21;11.90;99.90
64855;DHT22;51321;50.428;8.378;2023-11-19T16:01:06;11.90;99.90
64855;DHT22;51321;50.428;8.378;2023-11-19T16:03:47;11.90;99.90
64855;DHT22;51321;50.428;8.378;2023-11-19T16:06:27;12.00;99.90
64855;DHT22;51321;50.428;8.378;2023-11-19T16:09:08;12.00;99.90
64855;DHT22;51321;50.428;8.378;2023-11-19T16:11:53;11.90;99.90
64855;DHT22;51321;50.428;8.378;2023-11-19T16:14:34;11.90;99.90
64855;DHT22;51321;50.428;8.378;2023-11-19T16:17:16;11.90;99.90
64855;DHT22;51321;50.428;8.378;2023-11-19T16:19:58;11.90;99.90
64855;DHT22;51321;50.428;8.378;2023-11-19T16:22:39;11.90;99.90
64855;DHT22;51321;50.428;8.378;2023-11-19T16:25:21;11.90;99.90
64855;DHT22;51321;50.428;8.378;2023-11-19T16:28:02;11.90;99.90
64855;DHT22;51321;50.428;8.378;2023-11-19T16:30:42;11.90;99.90
64855;DHT22;51321;50.428;8.378;2023-11-19T16:33:25;11.90;99.90
64855;DHT22;51321;50.428;8.378;2023-11-19T16:36:06;11.80;99.90
64855;DHT22;51321;50.428;8.378;2023-11-19T16:38:47;11.70;99.90
64855;DHT22;51321;50.428;8.378;2023-11-19T16:41:28;11.70;99.90
64855;DHT22;51321;50.428;8.378;2023-11-19T16:44:08;11.70;99.90
64855;DHT22;51321;50.428;8.378;2023-11-19T16:46:49;11.70;99.90
64855;DHT22;51321;50.428;8.378;2023-11-19T16:49:32;11.70;99.90
64855;DHT22;51321;50.428;8.378;2023-11-19T16:52:13;11.60;99.90
64855;DHT22;51321;50.428;8.378;2023-11-19T16:54:55;11.60;99.90
64855;DHT22;51321;50.428;8.378;2023-11-19T16:57:35;11.50;99.90
64855;DHT22;51321;50.428;8.378;2023-11-19T17:00:17;11.50;99.90
64855;DHT22;51321;50.428;8.378;2023-11-19T17:02:57;11.60;99.90
64855;DHT22;51321;50.428;8.378;2023-11-19T17:05:41;11.60;99.90